Time;durP1;ratioP1;P1;durP2;ratioP2;P2;SDS_P1;SDS_P2;PMS_P1;PMS_P2;Temp;Humidity;BMP_temperature;BMP_pressure;BME280_temperature;BME280_humidity;BME280_pressure;Samples;Min_cycle;Max_cycle;Signal;HPM_P1;HPM_P2
2021/09/29 00:01:35;;;;;;;7.17;6.47;;;13.50;99.90;;;;;;4937526;29;20207;-76
2021/09/29 00:04:02;;;;;;;10.40;9.17;;;13.50;99.90;;;;;;4940484;29;20249;-78
2021/09/29 00:06:30;;;;;;;9.13;8.23;;;13.50;99.90;;;;;;4944000;29;20752;-77
2021/09/29 00:08:57;;;;;;;10.57;9.57;;;13.60;99.90;;;;;;4938609;29;20566;-77
2021/09/29 00:11:24;;;;;;;10.97;10.03;;;13.60;99.90;;;;;;4947920;29;20249;-77
2021/09/29 00:13:51;;;;;;;10.40;9.50;;;13.60;99.90;;;;;;4931598;29;20259;-78
2021/09/29 00:16:17;;;;;;;13.60;12.50;;;13.60;99.90;;;;;;4929285;29;20265;-77
2021/09/29 00:18:44;;;;;;;12.73;11.70;;;13.60;99.90;;;;;;4946088;29;20617;-77
2021/09/29 00:21:11;;;;;;;13.83;12.53;;;13.60;99.90;;;;;;4946074;29;20195;-77
2021/09/29 00:23:39;;;;;;;13.73;12.60;;;13.50;99.90;;;;;;4941090;29;20211;-77
2021/09/29 00:26:07;;;;;;;14.30;13.10;;;13.50;99.90;;;;;;4943021;29;20669;-77
2021/09/29 00:28:34;;;;;;;13.43;12.37;;;13.50;99.90;;;;;;4949301;29;20287;-77
2021/09/29 00:31:05;;;;;;;13.67;12.57;;;13.50;99.90;;;;;;4938912;29;20226;-77
2021/09/29 00:33:34;;;;;;;13.47;12.30;;;13.50;99.90;;;;;;4944108;29;20231;-77
2021/09/29 00:36:01;;;;;;;13.47;12.37;;;13.50;99.90;;;;;;4923228;29;20573;-77
2021/09/29 00:38:30;;;;;;;8.33;7.53;;;13.50;99.90;;;;;;4944714;29;20210;-77
2021/09/29 00:40:58;;;;;;;8.13;7.33;;;13.50;99.90;;;;;;4934281;29;20667;-77
2021/09/29 00:43:25;;;;;;;7.73;6.80;;;13.60;99.90;;;;;;4942899;29;20278;-77
2021/09/29 00:45:53;;;;;;;7.37;6.60;;;13.50;99.90;;;;;;4951197;29;20588;-77
2021/09/29 00:48:20;;;;;;;7.60;6.80;;;13.50;99.90;;;;;;4926419;29;20196;-77
2021/09/29 00:50:47;;;;;;;9.00;8.10;;;13.50;99.90;;;;;;4936237;29;20273;-78
2021/09/29 00:53:14;;;;;;;13.03;11.93;;;13.40;99.90;;;;;;4941890;29;20195;-78
2021/09/29 00:55:41;;;;;;;10.43;9.43;;;13.40;99.90;;;;;;4947504;29;20282;-77
2021/09/29 00:58:09;;;;;;;9.67;8.67;;;13.30;99.90;;;;;;4951706;29;20204;-77
2021/09/29 01:00:36;;;;;;;9.90;8.23;;;13.30;99.90;;;;;;4943151;29;20282;-77
2021/09/29 01:03:04;;;;;;;9.93;8.13;;;13.30;99.90;;;;;;4947504;29;20269;-77
2021/09/29 01:05:32;;;;;;;9.17;8.27;;;13.30;99.90;;;;;;4935841;29;20320;-77
2021/09/29 01:08:04;;;;;;;9.13;8.13;;;13.30;99.90;;;;;;4947972;29;20198;-77
2021/09/29 01:10:35;;;;;;;8.40;7.60;;;13.20;99.90;;;;;;4928888;29;20222;-77
2021/09/29 01:13:08;;;;;;;10.60;9.60;;;13.20;99.90;;;;;;4949597;29;20218;-78
2021/09/29 01:15:46;;;;;;;10.30;9.20;;;13.20;99.90;;;;;;4932652;29;20701;-77
2021/09/29 01:18:15;;;;;;;9.57;8.17;;;13.20;99.90;;;;;;4942690;29;20202;-77
2021/09/29 01:20:45;;;;;;;9.17;7.50;;;13.20;99.90;;;;;;4934059;29;20577;-77
2021/09/29 01:23:33;;;;;;;10.43;9.33;;;13.10;99.90;;;;;;4918676;29;20210;-78
2021/09/29 01:26:08;;;;;;;9.87;8.83;;;13.10;99.90;;;;;;4931737;29;20280;-77
2021/09/29 01:28:39;;;;;;;15.37;14.07;;;13.10;99.90;;;;;;4932555;29;20206;-78
2021/09/29 01:31:07;;;;;;;20.80;19.27;;;13.20;99.90;;;;;;4938933;29;20235;-77
2021/09/29 01:33:36;;;;;;;10.57;9.33;;;13.10;99.90;;;;;;4947530;29;20744;-77
2021/09/29 01:36:03;;;;;;;10.33;9.43;;;13.10;99.90;;;;;;4950037;29;20262;-77
2021/09/29 01:38:32;;;;;;;9.87;7.47;;;13.10;99.90;;;;;;4940996;29;20258;-78
2021/09/29 01:40:58;;;;;;;10.37;9.57;;;13.10;99.90;;;;;;4931372;29;20199;-77
2021/09/29 01:43:28;;;;;;;11.17;10.20;;;13.10;99.90;;;;;;4952625;29;20699;-77
2021/09/29 01:45:56;;;;;;;8.90;8.00;;;13.00;99.90;;;;;;4932070;29;20256;-77
2021/09/29 01:48:22;;;;;;;7.80;7.07;;;13.00;99.90;;;;;;4931993;29;20238;-77
2021/09/29 01:50:54;;;;;;;8.87;7.07;;;12.90;99.90;;;;;;4946872;29;20704;-77
2021/09/29 01:53:24;;;;;;;7.83;6.87;;;12.80;99.90;;;;;;4929581;29;20214;-78
2021/09/29 01:55:52;;;;;;;7.87;7.17;;;12.80;99.90;;;;;;4944043;29;20249;-77
2021/09/29 01:58:19;;;;;;;10.30;9.47;;;12.70;99.90;;;;;;4943904;29;20561;-76
2021/09/29 02:00:47;;;;;;;7.73;6.93;;;12.70;99.90;;;;;;4943440;29;20280;-78
2021/09/29 02:03:20;;;;;;;7.20;6.50;;;12.80;99.90;;;;;;4948980;29;20198;-77
2021/09/29 02:05:50;;;;;;;8.03;6.80;;;12.80;99.90;;;;;;4955225;29;20229;-76
2021/09/29 02:08:19;;;;;;;9.20;8.13;;;12.80;99.90;;;;;;4954838;29;20198;-77
2021/09/29 02:10:45;;;;;;;8.70;7.33;;;12.70;99.90;;;;;;4937427;29;20289;-77
2021/09/29 02:13:12;;;;;;;9.07;8.20;;;12.70;99.90;;;;;;4918833;29;20867;-77
2021/09/29 02:15:39;;;;;;;9.87;7.90;;;12.80;99.90;;;;;;4915338;29;20720;-77
2021/09/29 02:18:07;;;;;;;9.90;8.03;;;12.80;99.90;;;;;;4932667;29;20209;-77
2021/09/29 02:20:34;;;;;;;9.47;8.50;;;12.80;99.90;;;;;;4934010;29;20202;-76
2021/09/29 02:23:01;;;;;;;10.30;8.43;;;12.80;99.90;;;;;;4935552;29;20570;-77
2021/09/29 02:25:28;;;;;;;10.57;9.63;;;12.80;99.90;;;;;;4918371;29;20265;-77
2021/09/29 02:27:55;;;;;;;9.87;8.87;;;12.70;99.90;;;;;;4932804;29;20193;-77
2021/09/29 02:30:22;;;;;;;12.70;11.60;;;12.70;99.90;;;;;;4935516;29;20224;-77
2021/09/29 02:32:49;;;;;;;10.70;7.47;;;12.60;99.90;;;;;;4933709;29;20197;-77
2021/09/29 02:35:18;;;;;;;8.57;7.67;;;12.60;99.90;;;;;;4934230;29;20220;-79
2021/09/29 02:37:44;;;;;;;10.40;9.40;;;12.50;99.90;;;;;;4935316;29;20209;-79
2021/09/29 02:40:12;;;;;;;9.07;8.17;;;12.40;99.90;;;;;;4933785;29;20624;-79
2021/09/29 02:42:39;;;;;;;9.47;8.57;;;12.40;99.90;;;;;;4934683;29;20208;-80
2021/09/29 02:45:07;;;;;;;9.60;8.30;;;12.30;99.90;;;;;;4936780;29;20220;-80
2021/09/29 02:47:33;;;;;;;8.87;8.03;;;12.30;99.90;;;;;;4927729;29;20236;-81
2021/09/29 02:50:00;;;;;;;9.10;7.80;;;12.20;99.90;;;;;;4939713;29;20228;-80
2021/09/29 02:52:28;;;;;;;9.47;8.67;;;12.20;99.90;;;;;;4941641;29;20205;-80
2021/09/29 02:54:55;;;;;;;8.47;7.67;;;12.20;99.90;;;;;;4937720;29;20280;-77
2021/09/29 02:57:22;;;;;;;6.90;6.20;;;12.10;99.90;;;;;;4937200;29;20199;-80
2021/09/29 02:59:49;;;;;;;7.90;6.60;;;12.10;99.90;;;;;;4937347;29;20209;-80
2021/09/29 03:02:15;;;;;;;14.57;13.50;;;12.10;99.90;;;;;;4946043;29;20200;-79
2021/09/29 03:04:42;;;;;;;14.73;13.63;;;12.10;99.90;;;;;;4950191;29;20287;-77
2021/09/29 03:07:09;;;;;;;14.70;13.53;;;12.10;99.90;;;;;;4951292;29;20203;-79
2021/09/29 03:09:37;;;;;;;9.63;8.63;;;12.20;99.90;;;;;;4958569;29;20260;-78
2021/09/29 03:12:05;;;;;;;7.30;6.53;;;12.20;99.90;;;;;;4945672;29;20227;-78
2021/09/29 03:14:32;;;;;;;11.10;8.87;;;12.30;99.90;;;;;;4927603;29;20233;-83
2021/09/29 03:16:59;;;;;;;10.13;8.83;;;12.40;99.90;;;;;;4949605;29;20203;-80
2021/09/29 03:19:27;;;;;;;7.53;6.83;;;12.50;99.90;;;;;;4954142;29;20260;-81
2021/09/29 03:21:54;;;;;;;7.80;7.10;;;12.60;99.90;;;;;;4937385;29;20193;-80
2021/09/29 03:24:20;;;;;;;8.50;7.13;;;12.60;99.90;;;;;;4940721;29;20757;-78
2021/09/29 03:26:49;;;;;;;9.90;8.90;;;12.70;99.90;;;;;;4945148;29;20196;-74
2021/09/29 03:29:17;;;;;;;8.60;7.77;;;12.70;99.90;;;;;;4943158;29;20228;-75
2021/09/29 03:31:44;;;;;;;7.53;6.83;;;12.60;99.90;;;;;;4934563;29;20220;-75
2021/09/29 03:34:11;;;;;;;9.03;7.40;;;12.60;99.90;;;;;;4934293;29;20288;-75
2021/09/29 03:36:38;;;;;;;8.13;7.37;;;12.50;99.90;;;;;;4934253;29;20199;-75
2021/09/29 03:39:05;;;;;;;8.23;7.43;;;12.40;99.90;;;;;;4914686;29;20214;-74
2021/09/29 03:41:32;;;;;;;9.20;7.77;;;12.40;99.90;;;;;;4932209;29;20196;-75
2021/09/29 03:44:00;;;;;;;9.67;8.77;;;12.30;99.90;;;;;;4917082;29;20226;-75
2021/09/29 03:46:27;;;;;;;9.97;8.97;;;12.30;99.90;;;;;;4933996;29;20258;-75
2021/09/29 03:48:53;;;;;;;9.53;8.63;;;12.30;99.90;;;;;;4933778;29;20200;-75
2021/09/29 03:51:20;;;;;;;9.90;8.90;;;12.30;99.90;;;;;;4917151;29;20319;-76
2021/09/29 03:53:47;;;;;;;8.70;7.90;;;12.20;99.90;;;;;;4934077;29;20256;-75
2021/09/29 03:56:14;;;;;;;10.07;9.17;;;12.20;99.90;;;;;;4931148;29;20203;-75
2021/09/29 03:58:41;;;;;;;8.60;7.80;;;12.20;99.90;;;;;;4914160;29;20216;-75
2021/09/29 04:01:09;;;;;;;10.57;9.57;;;12.10;99.90;;;;;;4915139;29;20284;-75
2021/09/29 04:03:36;;;;;;;20.67;18.97;;;12.10;99.90;;;;;;4933196;29;20624;-75
2021/09/29 04:06:03;;;;;;;10.40;8.07;;;12.10;99.90;;;;;;5000970;23;20235;-77
2021/09/29 04:08:29;;;;;;;14.30;12.97;;;12.10;99.90;;;;;;4978255;28;20751;-77
2021/09/29 04:10:57;;;;;;;9.77;8.80;;;12.10;99.90;;;;;;4970757;28;20222;-77
2021/09/29 04:13:24;;;;;;;9.47;8.57;;;12.00;99.90;;;;;;4988988;28;20207;-77
2021/09/29 04:15:53;;;;;;;8.70;7.43;;;12.10;99.90;;;;;;4974279;28;20255;-78
2021/09/29 04:18:22;;;;;;;8.90;8.00;;;12.10;99.90;;;;;;4983908;28;20306;-77
2021/09/29 04:20:48;;;;;;;9.87;8.87;;;12.10;99.90;;;;;;4987552;28;20199;-77
2021/09/29 04:23:15;;;;;;;7.87;7.10;;;12.10;99.90;;;;;;4985835;28;20206;-78
2021/09/29 04:25:43;;;;;;;8.13;7.33;;;12.10;99.90;;;;;;4970405;28;20598;-77
2021/09/29 04:28:10;;;;;;;9.97;8.97;;;12.20;99.90;;;;;;4972420;28;20278;-78
2021/09/29 04:30:37;;;;;;;13.00;8.97;;;12.20;99.90;;;;;;4986230;28;20694;-77
2021/09/29 04:33:04;;;;;;;11.20;10.20;;;12.20;99.90;;;;;;4978540;28;20205;-78
2021/09/29 04:35:32;;;;;;;10.10;9.27;;;12.20;99.90;;;;;;4978170;28;20246;-77
2021/09/29 04:37:58;;;;;;;9.40;8.47;;;12.20;99.90;;;;;;4974092;28;20206;-77
2021/09/29 04:40:26;;;;;;;9.93;8.93;;;12.20;99.90;;;;;;4970316;28;20200;-77
2021/09/29 04:42:53;;;;;;;9.23;8.33;;;12.20;99.90;;;;;;4974500;28;20207;-77
2021/09/29 04:45:19;;;;;;;9.83;7.93;;;12.20;99.90;;;;;;4974308;28;20739;-77
2021/09/29 04:47:47;;;;;;;8.57;6.93;;;12.30;99.90;;;;;;4969936;28;20234;-78
2021/09/29 04:50:13;;;;;;;10.53;7.27;;;12.30;99.90;;;;;;4987518;28;20234;-77
2021/09/29 04:52:41;;;;;;;8.53;6.83;;;12.30;99.90;;;;;;4987607;28;20290;-78
2021/09/29 04:55:09;;;;;;;9.70;8.20;;;12.30;99.90;;;;;;4993834;28;20222;-78
2021/09/29 04:57:36;;;;;;;10.73;9.87;;;12.30;99.90;;;;;;4969875;28;20320;-79
2021/09/29 05:00:04;;;;;;;7.10;6.50;;;12.20;99.90;;;;;;4989911;28;20226;-78
2021/09/29 05:02:33;;;;;;;8.87;8.03;;;12.20;99.90;;;;;;4974915;28;20198;-78
2021/09/29 05:05:00;;;;;;;7.93;7.23;;;12.20;99.90;;;;;;4971009;28;20237;-77
2021/09/29 05:07:27;;;;;;;12.23;11.27;;;12.10;99.90;;;;;;4985977;28;20657;-78
2021/09/29 05:09:56;;;;;;;12.07;10.97;;;12.10;99.90;;;;;;4969631;28;20669;-78
2021/09/29 05:12:27;;;;;;;12.27;11.23;;;12.20;99.90;;;;;;4994045;28;20202;-77
2021/09/29 05:14:54;;;;;;;10.00;9.20;;;12.10;99.90;;;;;;4990301;28;20218;-77
2021/09/29 05:17:21;;;;;;;8.33;7.60;;;12.10;99.90;;;;;;4991440;28;20252;-77
2021/09/29 05:19:49;;;;;;;10.47;9.57;;;12.10;99.90;;;;;;4986703;28;20198;-78
2021/09/29 05:22:16;;;;;;;10.63;9.73;;;12.10;99.90;;;;;;4990898;28;20188;-78
2021/09/29 05:24:43;;;;;;;10.63;9.73;;;12.10;99.90;;;;;;4969512;28;20618;-78
2021/09/29 05:27:12;;;;;;;10.47;9.57;;;12.10;99.90;;;;;;4986910;28;20666;-78
2021/09/29 05:29:41;;;;;;;8.83;8.03;;;12.10;99.90;;;;;;4986852;28;20191;-78
2021/09/29 05:32:11;;;;;;;9.57;8.70;;;12.10;99.90;;;;;;4977940;28;20624;-78
2021/09/29 05:34:38;;;;;;;9.93;9.03;;;12.10;99.90;;;;;;4973567;28;20225;-77
2021/09/29 05:37:06;;;;;;;12.47;11.57;;;12.10;99.90;;;;;;4970794;28;20210;-77
2021/09/29 05:39:32;;;;;;;16.63;15.37;;;12.10;99.90;;;;;;4985993;28;20202;-78
2021/09/29 05:42:00;;;;;;;17.23;16.03;;;12.10;99.90;;;;;;4988007;28;20567;-77
2021/09/29 05:44:39;;;;;;;15.17;13.73;;;12.10;99.90;;;;;;4986492;28;20311;-78
2021/09/29 05:47:09;;;;;;;17.93;16.53;;;12.10;99.90;;;;;;4991809;28;20194;-77
2021/09/29 05:49:35;;;;;;;14.33;13.20;;;12.10;99.90;;;;;;4986198;28;20206;-77
2021/09/29 05:52:03;;;;;;;10.63;9.63;;;12.10;99.90;;;;;;4971760;28;20697;-77
2021/09/29 05:54:30;;;;;;;8.33;7.63;;;12.10;99.90;;;;;;4966188;28;20652;-77
2021/09/29 05:57:30;;;;;;;6.57;5.93;;;12.20;99.90;;;;;;4991147;28;20222;-77
2021/09/29 06:00:02;;;;;;;7.30;6.43;;;12.20;99.90;;;;;;4994046;28;20206;-77
2021/09/29 06:02:38;;;;;;;6.33;5.73;;;12.20;99.90;;;;;;4985963;28;20195;-77
2021/09/29 06:05:06;;;;;;;6.80;6.10;;;12.30;99.90;;;;;;4985716;28;20284;-78
2021/09/29 06:07:32;;;;;;;7.63;5.90;;;12.30;99.90;;;;;;4985908;28;20250;-78
2021/09/29 06:09:59;;;;;;;6.27;5.67;;;12.30;99.90;;;;;;4972140;28;20260;-77
2021/09/29 06:12:26;;;;;;;7.00;5.50;;;12.40;99.90;;;;;;4990710;28;20241;-78
2021/09/29 06:14:54;;;;;;;5.73;5.00;;;12.40;99.90;;;;;;4986330;28;20213;-76
2021/09/29 06:17:24;;;;;;;7.37;5.57;;;12.50;99.90;;;;;;4986051;28;20196;-78
2021/09/29 06:19:53;;;;;;;6.33;5.03;;;12.60;99.90;;;;;;4986133;28;20197;-77
2021/09/29 06:22:23;;;;;;;5.60;5.10;;;12.60;99.90;;;;;;4983431;28;20248;-77
2021/09/29 06:24:56;;;;;;;5.10;4.63;;;12.70;99.90;;;;;;4974883;28;20262;-77
2021/09/29 06:27:23;;;;;;;5.60;5.03;;;12.80;99.90;;;;;;4986335;28;20199;-78
2021/09/29 06:29:53;;;;;;;5.53;4.50;;;12.90;99.90;;;;;;4990062;28;20639;-77
2021/09/29 06:32:22;;;;;;;5.43;4.93;;;12.90;99.90;;;;;;4972679;28;20227;-77
2021/09/29 06:34:54;;;;;;;4.87;4.40;;;13.00;99.90;;;;;;4995884;28;20734;-77
2021/09/29 06:37:24;;;;;;;5.57;5.07;;;13.00;99.90;;;;;;4977751;28;20642;-77
2021/09/29 06:39:55;;;;;;;4.40;4.00;;;13.10;99.90;;;;;;4973536;28;20579;-78
2021/09/29 06:42:24;;;;;;;4.77;4.37;;;13.20;99.90;;;;;;4976343;28;20658;-78
2021/09/29 06:44:52;;;;;;;5.07;4.63;;;13.40;99.90;;;;;;4976272;28;20281;-77
2021/09/29 06:47:20;;;;;;;7.13;4.80;;;13.40;99.90;;;;;;4976295;28;20205;-77
2021/09/29 06:49:48;;;;;;;4.73;3.90;;;13.50;99.90;;;;;;4982537;28;20231;-77
2021/09/29 06:52:14;;;;;;;5.10;4.30;;;13.60;99.90;;;;;;4993065;28;20623;-77
2021/09/29 06:54:41;;;;;;;4.87;4.40;;;13.70;99.90;;;;;;4991159;28;20235;-77
2021/09/29 06:57:08;;;;;;;4.80;4.27;;;13.80;99.90;;;;;;4976576;28;20614;-77
2021/09/29 06:59:35;;;;;;;5.87;4.60;;;13.90;99.90;;;;;;4994165;28;20208;-77
2021/09/29 07:02:02;;;;;;;6.17;4.70;;;14.10;99.90;;;;;;4993612;28;20204;-77
2021/09/29 07:04:29;;;;;;;6.13;4.90;;;14.40;99.90;;;;;;4988735;28;20223;-77
2021/09/29 07:06:57;;;;;;;8.07;7.33;;;14.80;99.90;;;;;;4972695;28;20201;-78
2021/09/29 07:09:24;;;;;;;8.33;7.73;;;15.10;99.90;;;;;;4995183;28;20196;-78
2021/09/29 07:11:51;;;;;;;8.50;5.50;;;15.40;99.90;;;;;;4993216;28;20217;-79
2021/09/29 07:14:19;;;;;;;4.57;4.13;;;16.00;99.90;;;;;;4990413;28;20196;-79
2021/09/29 07:16:58;;;;;;;7.63;4.87;;;16.60;99.90;;;;;;4990761;28;20734;-79
2021/09/29 07:20:03;;;;;;;4.80;4.30;;;16.90;99.90;;;;;;4975493;28;20736;-79
2021/09/29 07:23:05;;;;;;;4.93;4.37;;;17.50;99.90;;;;;;4975564;28;20354;-79
2021/09/29 07:25:58;;;;;;;7.60;7.10;;;17.90;99.90;;;;;;4975517;28;20221;-79
2021/09/29 07:28:39;;;;;;;5.17;3.73;;;18.40;99.90;;;;;;4975333;28;20240;-79
2021/09/29 07:31:06;;;;;;;4.80;3.70;;;18.90;99.90;;;;;;4974427;28;20256;-79
2021/09/29 07:33:35;;;;;;;4.50;4.07;;;19.30;99.90;;;;;;4986424;28;20758;-79
2021/09/29 07:36:02;;;;;;;11.40;10.67;;;19.60;99.90;;;;;;4973446;28;20318;-79
2021/09/29 07:38:30;;;;;;;7.17;6.67;;;19.80;99.90;;;;;;4984360;28;20569;-79
2021/09/29 07:40:57;;;;;;;11.27;10.37;;;20.00;99.90;;;;;;4988281;28;20197;-79
2021/09/29 07:43:24;;;;;;;5.10;4.37;;;20.20;99.90;;;;;;4989061;28;20207;-79
2021/09/29 07:45:51;;;;;;;4.90;4.50;;;20.60;99.90;;;;;;4992614;28;20220;-79
2021/09/29 07:48:24;;;;;;;11.73;10.83;;;20.70;99.90;;;;;;4990703;28;20640;-79
2021/09/29 07:50:50;;;;;;;4.80;4.00;;;20.80;99.90;;;;;;4974295;28;20212;-79
2021/09/29 07:53:20;;;;;;;9.77;9.07;;;21.00;99.90;;;;;;4971455;28;20757;-79
2021/09/29 07:55:48;;;;;;;4.57;3.10;;;21.10;99.90;;;;;;4984131;28;20213;-79
2021/09/29 07:58:15;;;;;;;7.30;6.70;;;21.00;99.90;;;;;;4979171;28;20205;-79
2021/09/29 08:00:42;;;;;;;4.13;3.83;;;21.00;99.90;;;;;;4975987;28;20259;-79
2021/09/29 08:03:09;;;;;;;4.43;2.90;;;21.20;99.90;;;;;;4986916;28;20663;-79
2021/09/29 08:05:40;;;;;;;3.63;3.20;;;21.50;99.90;;;;;;4973752;28;20292;-78
2021/09/29 08:08:07;;;;;;;4.40;3.93;;;21.80;99.90;;;;;;4975098;28;20228;-79
2021/09/29 08:10:34;;;;;;;10.00;9.30;;;21.90;99.90;;;;;;4988433;28;20251;-79
2021/09/29 08:13:02;;;;;;;6.67;2.90;;;22.10;99.90;;;;;;4984010;28;20224;-79
2021/09/29 08:15:29;;;;;;;9.53;8.90;;;22.10;99.90;;;;;;4984200;28;20576;-79
2021/09/29 08:17:56;;;;;;;8.60;7.90;;;22.30;99.90;;;;;;4990518;28;20256;-78
2021/09/29 08:20:25;;;;;;;6.80;6.20;;;22.30;99.90;;;;;;4989233;28;20336;-79
2021/09/29 08:22:55;;;;;;;8.60;7.23;;;22.50;99.90;;;;;;4991218;28;20207;-79
2021/09/29 08:25:35;;;;;;;7.43;6.87;;;22.50;99.90;;;;;;4992365;28;20255;-79
2021/09/29 08:28:24;;;;;;;9.07;8.27;;;22.50;99.90;;;;;;4991743;28;20640;-79
2021/09/29 08:30:58;;;;;;;9.60;9.00;;;22.60;99.90;;;;;;4974626;28;20308;-79
2021/09/29 08:33:43;;;;;;;9.67;8.97;;;22.50;99.90;;;;;;4966626;28;20707;-79
2021/09/29 08:36:19;;;;;;;9.10;8.60;;;22.50;99.90;;;;;;4983871;28;20227;-79
2021/09/29 08:38:51;;;;;;;9.77;9.07;;;22.50;99.90;;;;;;4964712;28;20221;-79
2021/09/29 08:41:30;;;;;;;9.43;8.53;;;22.60;99.90;;;;;;4985479;28;20202;-79
2021/09/29 08:44:03;;;;;;;9.53;8.97;;;22.60;99.90;;;;;;4970173;28;20205;-79
2021/09/29 08:46:35;;;;;;;3.50;3.30;;;22.60;99.90;;;;;;4971582;28;20232;-79
2021/09/29 08:49:11;;;;;;;4.43;4.13;;;22.60;99.90;;;;;;4974078;28;20627;-79
2021/09/29 08:57:34;;;;;;;10.23;9.63;;;22.90;99.90;;;;;;4968982;28;20300;-79
2021/09/29 09:16:32;;;;;;;9.43;8.73;;;20.00;99.90;;;;;;4972753;28;20283;-79
2021/09/29 09:19:02;;;;;;;9.13;8.60;;;20.00;99.90;;;;;;4969686;28;20569;-78
2021/09/29 09:21:29;;;;;;;9.40;8.70;;;20.40;99.90;;;;;;4986901;28;20205;-79
2021/09/29 09:23:58;;;;;;;10.47;9.63;;;20.90;99.90;;;;;;4972958;28;20209;-79
2021/09/29 09:26:27;;;;;;;9.10;8.60;;;20.90;99.90;;;;;;4991406;28;20769;-79
2021/09/29 09:29:04;;;;;;;3.33;2.57;;;21.00;99.90;;;;;;4987063;28;20209;-79
2021/09/29 09:31:33;;;;;;;3.47;2.50;;;21.40;99.90;;;;;;4992126;28;20698;-79
2021/09/29 09:34:05;;;;;;;8.93;8.43;;;21.80;99.90;;;;;;4988082;28;20220;-79
2021/09/29 09:36:34;;;;;;;4.47;2.50;;;22.10;99.90;;;;;;4986562;28;20230;-79
2021/09/29 09:39:04;;;;;;;10.90;9.90;;;21.90;99.90;;;;;;4986163;28;20255;-79
2021/09/29 09:41:31;;;;;;;4.73;4.37;;;21.80;99.90;;;;;;4986861;28;20206;-79
2021/09/29 09:44:00;;;;;;;3.57;2.23;;;21.90;99.90;;;;;;4990223;28;20621;-79
2021/09/29 09:46:27;;;;;;;4.13;3.77;;;22.00;99.90;;;;;;4991017;28;20213;-80
2021/09/29 09:49:07;;;;;;;10.60;9.73;;;22.10;99.90;;;;;;4986648;28;20239;-79
2021/09/29 09:51:46;;;;;;;7.43;5.90;;;22.10;99.90;;;;;;4986379;28;20193;-79
2021/09/29 09:54:13;;;;;;;4.07;2.70;;;22.00;99.90;;;;;;4990521;28;20200;-79
2021/09/29 09:56:42;;;;;;;7.03;3.60;;;22.10;99.90;;;;;;4984753;28;20288;-79
2021/09/29 09:59:09;;;;;;;5.50;3.17;;;22.20;99.90;;;;;;4968756;28;20196;-79
2021/09/29 10:01:36;;;;;;;4.90;2.50;;;22.30;99.90;;;;;;4986165;28;20193;-79
2021/09/29 10:04:11;;;;;;;5.37;2.40;;;22.20;99.90;;;;;;4992899;28;20205;-79
2021/09/29 10:06:38;;;;;;;3.03;2.73;;;22.20;99.90;;;;;;4990987;23;20283;-77
2021/09/29 10:09:11;;;;;;;4.10;2.43;;;22.20;99.90;;;;;;4983593;28;20627;-77
2021/09/29 10:11:50;;;;;;;6.00;4.00;;;22.00;99.90;;;;;;4983210;28;20668;-76
2021/09/29 10:14:31;;;;;;;3.90;3.43;;;22.10;99.90;;;;;;4990224;28;20217;-77
2021/09/29 10:23:08;;;;;;;3.90;2.17;;;21.30;99.90;;;;;;4965998;28;20209;-76
2021/09/29 10:28:20;;;;;;;2.37;2.17;;;20.60;99.90;;;;;;4952046;28;20251;-77
2021/09/29 10:31:07;;;;;;;2.63;1.90;;;20.40;99.90;;;;;;4966822;28;20260;-76
2021/09/29 10:33:36;;;;;;;2.13;1.93;;;20.30;99.90;;;;;;4969481;28;20220;-77
2021/09/29 10:36:08;;;;;;;5.03;2.20;;;20.30;99.90;;;;;;4948615;28;20259;-76
2021/09/29 10:41:38;;;;;;;3.03;2.10;;;20.20;99.90;;;;;;4970103;28;20192;-76
2021/09/29 10:44:19;;;;;;;3.80;1.90;;;20.00;99.90;;;;;;4956910;28;20557;-76
2021/09/29 10:46:54;;;;;;;2.97;2.20;;;20.10;99.90;;;;;;4959722;28;20221;-77
2021/09/29 10:49:38;;;;;;;2.00;1.80;;;20.30;99.90;;;;;;4962002;28;20208;-76
2021/09/29 11:06:37;;;;;;;3.30;2.30;;;20.60;99.90;;;;;;4925486;28;20227;-76
2021/09/29 11:31:33;;;;;;;3.13;2.13;;;20.70;99.90;;;;;;4936550;28;20739;-76
2021/09/29 11:34:05;;;;;;;3.50;2.47;;;20.70;99.90;;;;;;4967855;28;20212;-76
2021/09/29 11:36:57;;;;;;;4.00;2.50;;;20.70;99.90;;;;;;4971743;28;20236;-76
2021/09/29 11:39:51;;;;;;;2.60;2.07;;;20.60;99.90;;;;;;4960194;28;20202;-76
2021/09/29 12:08:02;;;;;;;3.33;2.00;;;21.10;99.90;;;;;;4969495;28;20198;-76
2021/09/29 12:10:29;;;;;;;2.60;2.10;;;21.00;99.90;;;;;;4953015;28;20206;-76
2021/09/29 12:12:58;;;;;;;4.73;2.20;;;20.80;99.90;;;;;;4972494;28;20214;-76
2021/09/29 12:15:26;;;;;;;1.93;1.70;;;20.70;99.90;;;;;;4951758;28;20272;-76
2021/09/29 12:17:53;;;;;;;5.87;2.30;;;20.50;99.90;;;;;;4947746;28;20202;-76
2021/09/29 12:20:23;;;;;;;3.27;1.97;;;20.30;99.90;;;;;;4971429;28;20197;-76
2021/09/29 12:22:56;;;;;;;2.80;2.17;;;20.30;99.90;;;;;;4964800;28;20721;-76
2021/09/29 12:25:26;;;;;;;4.60;2.00;;;20.20;99.90;;;;;;4947463;28;20721;-76
2021/09/29 12:28:14;;;;;;;3.10;2.00;;;20.00;99.90;;;;;;4964505;28;20233;-76
2021/09/29 12:30:46;;;;;;;2.47;1.90;;;19.90;99.90;;;;;;4969202;28;20704;-76
2021/09/29 12:33:17;;;;;;;2.37;1.83;;;20.10;99.90;;;;;;4967725;28;20715;-75
2021/09/29 12:35:49;;;;;;;2.57;1.87;;;20.40;99.90;;;;;;4964538;28;20727;-76
2021/09/29 12:38:17;;;;;;;2.17;1.90;;;20.80;99.90;;;;;;4964265;28;20285;-76
2021/09/29 12:40:45;;;;;;;2.13;1.80;;;21.00;99.90;;;;;;4968002;28;20249;-76
2021/09/29 12:43:14;;;;;;;4.07;1.83;;;21.20;99.90;;;;;;4947490;28;20533;-76
2021/09/29 12:45:46;;;;;;;2.50;1.90;;;21.30;99.90;;;;;;4968233;28;20218;-75
2021/09/29 12:48:13;;;;;;;1.90;1.80;;;21.30;99.90;;;;;;4969438;28;20195;-76
2021/09/29 12:50:47;;;;;;;3.47;1.83;;;21.50;99.90;;;;;;4973834;28;20548;-76
2021/09/29 12:53:20;;;;;;;2.23;1.80;;;21.60;99.90;;;;;;4976116;28;20210;-76
2021/09/29 12:55:52;;;;;;;2.80;2.10;;;21.50;99.90;;;;;;4968042;28;20269;-75
2021/09/29 12:58:19;;;;;;;3.07;1.70;;;21.50;99.90;;;;;;4967990;28;20228;-76
2021/09/29 13:00:47;;;;;;;2.47;1.90;;;21.50;99.90;;;;;;4959100;28;20615;-76
2021/09/29 13:03:14;;;;;;;3.77;2.53;;;21.60;99.90;;;;;;4968145;28;20198;-76
2021/09/29 13:05:41;;;;;;;2.57;2.00;;;21.30;99.90;;;;;;4958353;28;20238;-76
2021/09/29 13:08:08;;;;;;;4.73;2.07;;;21.20;99.90;;;;;;4970026;28;20704;-76
2021/09/29 13:10:35;;;;;;;2.23;1.90;;;21.10;99.90;;;;;;4972611;28;20198;-76
2021/09/29 13:13:02;;;;;;;3.00;1.90;;;21.20;99.90;;;;;;4969489;28;20209;-76
2021/09/29 13:15:29;;;;;;;1.83;1.60;;;21.20;99.90;;;;;;4962666;28;20712;-76
2021/09/29 13:17:58;;;;;;;2.93;2.00;;;21.10;99.90;;;;;;4967602;28;20286;-76
2021/09/29 13:20:27;;;;;;;3.67;1.97;;;21.10;99.90;;;;;;4971851;28;20205;-77
2021/09/29 13:22:57;;;;;;;2.73;2.10;;;21.00;99.90;;;;;;4950409;28;20256;-76
2021/09/29 13:36:34;;;;;;;2.70;1.80;;;20.90;99.90;;;;;;4951975;28;20226;-76
2021/09/29 13:39:01;;;;;;;2.67;2.00;;;20.60;99.90;;;;;;4970417;28;20205;-76
2021/09/29 13:41:28;;;;;;;3.50;1.90;;;20.40;99.90;;;;;;4971053;28;20689;-76
2021/09/29 13:43:55;;;;;;;1.93;1.83;;;20.20;99.90;;;;;;4975173;28;20585;-76
2021/09/29 13:46:22;;;;;;;3.40;1.87;;;20.00;99.90;;;;;;4967015;28;20272;-76
2021/09/29 13:48:51;;;;;;;6.40;2.20;;;19.90;99.90;;;;;;4966626;28;20194;-76
2021/09/29 13:51:18;;;;;;;6.20;2.53;;;19.60;99.90;;;;;;4967782;28;20672;-75
2021/09/29 13:53:45;;;;;;;3.33;1.97;;;19.40;99.90;;;;;;4971289;28;20720;-76
2021/09/29 13:56:14;;;;;;;2.77;2.10;;;19.20;99.90;;;;;;4967539;28;20720;-76
2021/09/29 13:59:01;;;;;;;4.00;2.30;;;19.20;99.90;;;;;;4955208;28;20209;-76
2021/09/29 14:29:08;;;;;;;3.60;1.93;;;18.40;99.90;;;;;;4968847;28;20200;-78
2021/09/29 14:31:41;;;;;;;6.63;6.23;;;18.10;99.90;;;;;;4979430;28;20260;-79
2021/09/29 14:34:08;;;;;;;13.13;8.07;;;17.80;99.90;;;;;;4971562;28;20206;-79
2021/09/29 14:36:36;;;;;;;7.90;7.30;;;17.50;99.90;;;;;;4976909;28;20222;-78
2021/09/29 14:39:03;;;;;;;7.40;6.90;;;17.20;99.90;;;;;;4973140;28;20730;-77
2021/09/29 14:41:30;;;;;;;7.60;7.10;;;17.00;99.90;;;;;;4971850;28;20240;-78
2021/09/29 14:43:57;;;;;;;7.80;7.30;;;16.90;99.90;;;;;;4976201;28;20193;-78
2021/09/29 14:46:24;;;;;;;9.87;7.10;;;16.80;99.90;;;;;;4957291;28;20220;-81
2021/09/29 14:48:51;;;;;;;7.50;7.00;;;16.50;99.90;;;;;;4968759;28;20205;-78
2021/09/29 14:51:18;;;;;;;7.60;7.10;;;16.00;99.90;;;;;;4969748;28;20199;-78
2021/09/29 14:53:49;;;;;;;7.40;6.77;;;15.90;99.90;;;;;;4972094;28;20257;-79
2021/09/29 14:56:17;;;;;;;7.20;6.80;;;15.80;99.90;;;;;;4973576;28;20212;-78
2021/09/29 14:58:45;;;;;;;7.00;6.60;;;15.60;99.90;;;;;;4971898;28;20601;-78
2021/09/29 15:01:12;;;;;;;7.63;7.13;;;15.60;99.90;;;;;;4973367;28;20259;-78
2021/09/29 15:03:40;;;;;;;7.60;7.20;;;15.50;99.90;;;;;;4957438;28;20261;-78
2021/09/29 15:06:08;;;;;;;7.60;7.00;;;15.40;99.90;;;;;;4970807;28;20222;-78
2021/09/29 15:08:39;;;;;;;7.53;7.03;;;15.30;99.90;;;;;;4969391;28;20229;-77
2021/09/29 15:11:09;;;;;;;7.70;7.20;;;15.20;99.90;;;;;;4970480;28;20221;-78